• Join FlightAware (Why Join?)
  • Login
  • US Flag 
05:44AM EDT


 

Airport Tracker/Info


-or-


 

Live Flight TrackerFlight Track Log ✈ WBR2634 ✈ 29-Apr-2013 ✈ KBRL - KORD

Flight Track Log - Related Links

Times and Time Zones

All times are in EDT time to prevent confusion due to time zone crossing. See the WBR2634 flight status page for this flight to view local times or setup timezone preferences in your user account.

Time Position Orientation Groundspeed Altitude Reporting Facility
EDT Latitude Longitude Course Direction KTS MPH feet Rate Location/Type
05:44PM 40.7714 -91.0658 73° East 115 132 2,500  Level Chicago Center
05:45PM 40.7806 -91.0189 76° East 130 150 3,300 720 Climbing Chicago Center
05:46PM 40.8667 -90.7600 90° East  Level FlightAware Approximate
05:46PM 40.7936 -90.9708 70° East 134 154 4,100  Level Chicago Center
05:47PM 40.8794 -90.6990 72° East  Level FlightAware Approximate
05:47PM 40.8075 -90.9206 70° East 141 162 4,700  Level Chicago Center
05:48PM 40.8938 -90.6382 73° East  Level FlightAware Approximate
05:48PM 40.8250 -90.8578 70° East 149 171 5,500  Level Chicago Center
05:49PM 40.9080 -90.5772 73° East  Level FlightAware Approximate
05:49PM 40.8400 -90.8033 70° East 156 180 6,200  Level Chicago Center
05:50PM 40.8556 -90.7461 70° East 163 188 6,800 480 Climbing Chicago Center
05:51PM 40.8719 -90.6872 70° East 169 194 7,300 480 Climbing Chicago Center
05:52PM 40.8869 -90.6289 71° East 169 194 7,900 360 Climbing Chicago Center
05:53PM 40.9025 -90.5664 72° East 176 203 8,100  Climbing Chicago Center
05:54PM 40.9256 -90.4858 69° East 191 220 8,000 240 Descending Chicago Center
05:55PM 40.9433 -90.4206 70° East 190 219 8,600 480 Climbing Chicago Center
05:56PM 40.9586 -90.3589 72° East 179 206 9,000 180 Climbing Chicago Center
05:57PM 40.9758 -90.2933 71° East 184 212 9,000  Level Chicago Center
05:58PM 40.9967 -90.2239 68° East 198 228 9,100  Climbing Chicago Center
05:59PM 41.0169 -90.1572 68° East 197 227 9,000 -120 Descending Chicago Center
06:00PM 41.0322 -90.0931 72° East 188 216 8,900  Descending Chicago Center
06:01PM 41.0506 -90.0175 72° East 181 208 9,000  Climbing Chicago Center
06:02PM 41.0656 -89.9539 73° East 180 207 9,000  Level Chicago Center
06:03PM 41.0831 -89.8914 70° East 180 207 9,000 -60 Level Chicago Center
06:04PM 41.0994 -89.8283 71° East 180 207 8,900  Descending Chicago Center
06:05PM 41.1153 -89.7656 71° East 179 206 9,000  Climbing Chicago Center
06:06PM 41.1325 -89.7033 70° East 179 206 9,000 -60 Level Chicago Center
06:07PM 41.1483 -89.6414 71° East 178 205 8,900 -60 Descending Chicago Center
06:08PM 41.1694 -89.5672 69° East 179 206 8,900  Level Chicago Center
06:09PM 41.1958 -89.5133 57° Northeast 175 201 9,000  Climbing Chicago Center
06:11PM 41.2222 -89.4578 58° Northeast 176 203 9,000 -60 Level Chicago Center
06:12PM 41.2481 -89.4017 59° Northeast 178 205 8,900  Descending Chicago Center
06:13PM 41.2739 -89.3464 58° Northeast 176 203 9,000  Climbing Chicago Center
06:14PM 41.2989 -89.2892 60° Northeast 178 205 9,000 -60 Level Chicago Center
06:15PM 41.3328 -89.2256 55° Northeast 177 204 8,900  Descending Chicago Center
06:16PM 41.3622 -89.1694 55° Northeast 176 203 9,000  Climbing Chicago Center
06:17PM 41.3875 -89.1133 59° Northeast 178 205 8,900 -60 Descending Chicago Center
06:18PM 41.4131 -89.0569 59° Northeast 180 207 8,900  Level Chicago Center
06:19PM 41.4392 -89.0044 56° Northeast 175 201 9,000  Climbing Chicago Center
06:20PM 41.4633 -88.9478 60° Northeast 176 203 8,900 -180 Descending Chicago Center
06:21PM 41.4917 -88.8781 62° Northeast 180 207 8,700 -300 Descending Chicago Center
06:22PM 41.5192 -88.8225 57° Northeast 181 208 8,400 -420 Descending Chicago Center
06:23PM 41.5450 -88.7647 59° Northeast 183 211 7,900 -300 Descending Chicago Center
06:24PM 41.5689 -88.7044 62° Northeast 185 213 7,900  Level Chicago Center
06:25PM 41.5961 -88.6525 55° Northeast 175 201 7,900  Level Chicago Center
06:26PM 41.6172 -88.5953 64° Northeast 173 199 7,900  Level Chicago Center
06:27PM 41.6417 -88.5233 66° East 177 204 7,900  Level Chicago Center
06:28PM 41.6622 -88.4664 64° Northeast 173 199 8,000  Climbing Chicago Center
06:29PM 41.6822 -88.4072 66° East 174 200 8,000  Level Chicago Center
06:30PM 41.7031 -88.3494 64° Northeast 174 200 8,000 -240 Level Chicago Center
06:31PM 41.7322 -88.2994 52° Northeast 172 198 7,600 -480 Descending Chicago Center
06:32PM 41.7647 -88.2494 49° Northeast 177 204 7,100 -300 Descending Chicago Center
06:33PM 41.8036 -88.1886 49° Northeast 179 206 7,000  Descending Chicago Center
06:34PM 41.8394 -88.1544 35° Northeast 175 201 7,100  Climbing Chicago Center
06:35PM 41.8839 -88.1586 356° North 163 188 7,100  Level Chicago Center
06:36PM 41.9306 -88.1611 358° North 166 191 7,100  Level Chicago Center
06:37PM 41.9808 -88.1622 359° North 178 205 7,100 -540 Level Chicago Center
06:38PM 42.0372 -88.1769 349° North 175 201 6,100 -900 Descending Chicago Center
06:39PM 42.0847 -88.1956 344° North 179 206 5,300 -780 Descending Chicago Center
06:41PM 42.1078 -88.1361 62° Northeast 193 222 4,500 -660 Descending Chicago Center
06:41PM 42.1000 -88.1000 106° East 164 189 4,300 -540 Descending Chicago TRACON
06:42PM 42.0833 -88.0333 109° East 156 180 3,600 -960 Descending Chicago TRACON
06:43PM 42.0500 -88.0000 143° Southeast 148 170 2,300 -1,020 Descending Chicago TRACON
06:44PM 42.0333 -87.9667 124° Southeast 125 144 1,700 -720 Descending Chicago TRACON
06:45PM 42.0000 -87.9333 143° Southeast 115 132 900 -780 Descending Chicago TRACON
06:47PM 41.9817 -87.9067 111° Southeast  Level Estimated
06:54PM 41.9817 -87.9067 111° Southeast  Level Estimated